Página principal
METAR-TAF:

METAR-TAF

Aeroportos :

Aeroporto Internacional Nouakchott-Oumtounsy

Nouakchott, Mauritânia

latitude: 18-18-36N, longitude: 015-58-11W, altura: 3 m

Observação actual do tempo

O boletim foi feito há 33 minutos, às 02:30 UTC
Vento 5 kt de oeste
Temperatura 21°C
Humidade 88%
Pressão 1010 hPa
Visibilidade: 8000 m

METAR: GQNO 240230Z 26005KT 8000 NSC 21/19 Q1010 NOSIG

Hora: 03:03 (03:03 UTC)

Previsão

O boletim foi feito há 4 horas e 3 minutos, às 23:00 UTC
Previsão válida de 24 às 00 UTC a 25 às 06 UTC
Vento 10 kt de oeste
Visibilidade: 7000 m
Temporariamente
de 24 às 08 UTC a 24 às 12 UTC
Vento 5 kt de su-sudoeste
Tornando-se
de 25 às 03 UTC a 25 às 06 UTC
Vento 10 kt de nor-noroeste

TAF: GQNO 232300Z 2400/2506 26010KT 7000 NSC TEMPO 2408/2412 20005KT BECMG 2503/2506 33010KT

Observações e previsões do tempo de mais de 4000 aeroportos (mensagens METAR e TAF).

As estações disponíveis são os pontos amarelos e vermelhos sobre o mapa.

Mova o rato sobre o mapa para ver o nome da estação.

Depois clique no ponto para visualizar as observações e previsões meteorológicas.

Para alterar o mapa : clique nos botões verdes com uma cruz preta para aumentar o zoom; no botão verde com uma pitada de zoom; ou nas setas verdes para mapas adjacentes.


METAR-TAF: